Engelthal, Germany

8:56 PM CET on December 06, 2016 (GMT +0100)
Lachenbühl | | Change Station

Elev 1456 ft 49.45 °N, 11.36 °E | Updated 6 minutes ago

Overcast
Overcast
25.9 °F
Feels Like 26 °F
N
1.2
Wind Variable Wind from South
Gusts 3.1 mph

Today
High -- | Low -- °F
--% Chance of Precip.
Yesterday
High -- | Low -- °F
Precip. -- in
Pressure 30.54 in
Visibility 2.5 miles
Clouds Overcast 300 ft
Windchill 26 °F
Dew Point 25 °F
Humidity 96%
Rainfall 0.00 in
Snow Depth Not available.
7:55 AM 4:15 PM
Waxing Crescent, 44% visible
METAR EDDN 061950Z 07003KT 030V090 4000 BR OVC003 M02/M03 Q1034 R28/19//95 NOSIG
Pressure 30.54 in
Visibility 2.5 miles
Clouds Overcast 300 ft
Windchill 26 °F
Dew Point 25 °F
Humidity 96%
Rainfall 0.00 in
Snow Depth Not available.
7:55 AM 4:15 PM
Waxing Crescent, 44% visible
METAR EDDN 061950Z 07003KT 030V090 4000 BR OVC003 M02/M03 Q1034 R28/19//95 NOSIG

10-Day Weather Forecast

×

Almanac

Astronomy

Dec. 06, 2016 Rise Set
Actual Time
Civil Twilight
Nautical Twilight
Astronomical Twilight
Moon
Length of Visible Light
Length of Day
Tomorrow will be .
, % of the Moon is Illuminated

Today's Extremes

Country Highs Country Lows

Community

WunderPhotos

Upload Photos

1,956,020 photos uploaded!

WunderBlog® & News

Nearby

Air Quality

  Air Quality AQ Index Pollutant
Not available.

Snow Depth

Station Depth Elevation

Earthquake Activity

City Distance Mag. Time & Date
Minimum magnitude displayed is 2.5.

Coastal Water Temperatures

Place Temperature

Stations

Nearby Weather Stations

Station Location Temp. Windchill Dew Point Humidity Wind Precip. Elev Updated Type